createdAt,value
2018-09-25T00:01:11.834Z,102445.69
2018-09-25T00:03:47.720Z,102441.31
2018-09-25T00:06:23.520Z,102453.12
2018-09-25T00:08:59.504Z,102452.25
2018-09-25T00:11:35.475Z,102454.01
2018-09-25T00:14:11.243Z,102458.40
2018-09-25T00:16:46.887Z,102459.25
2018-09-25T00:19:22.791Z,102452.69
2018-09-25T00:21:58.558Z,102455.32
2018-09-25T00:24:34.387Z,102459.26
2018-09-25T00:27:10.214Z,102454.00
2018-09-25T00:29:45.843Z,102454.88
2018-09-25T00:32:52.621Z,102450.06
2018-09-25T00:35:28.450Z,102459.71
2018-09-25T00:38:04.193Z,102464.05
2018-09-25T00:40:40.187Z,102470.62
2018-09-25T00:43:16.124Z,102471.07
2018-09-25T00:45:51.941Z,102468.45
2018-09-25T00:48:28.732Z,102471.50
2018-09-25T00:51:04.587Z,102471.50
2018-09-25T00:53:40.459Z,102466.70
2018-09-25T00:56:16.234Z,102470.22
2018-09-25T00:58:52.123Z,102469.76
2018-09-25T01:01:27.822Z,102470.21
2018-09-25T01:04:03.734Z,102474.13
2018-09-25T01:06:39.506Z,102475.89
2018-09-25T01:09:15.292Z,102474.58
2018-09-25T01:11:51.013Z,102480.70
2018-09-25T01:14:26.806Z,102483.34
2018-09-25T01:17:02.774Z,102485.50
2018-09-25T01:19:38.680Z,102485.94
2018-09-25T01:22:14.496Z,102487.26
2018-09-25T01:24:50.389Z,102491.63
2018-09-25T01:27:26.160Z,102482.44
2018-09-25T01:30:01.903Z,102481.99
2018-09-25T01:32:37.661Z,102475.87
2018-09-25T01:35:13.581Z,102479.80
2018-09-25T01:37:49.383Z,102486.34
2018-09-25T01:40:25.334Z,102484.61
2018-09-25T01:43:01.203Z,102492.45
2018-09-25T01:45:36.994Z,102495.09
2018-09-25T01:48:13.017Z,102496.84
2018-09-25T01:50:48.887Z,102496.82
2018-09-25T01:53:24.641Z,102499.88
2018-09-25T01:56:00.564Z,102495.05
2018-09-25T01:58:36.331Z,102493.75
2018-09-25T02:01:12.133Z,102494.20
2018-09-25T02:03:48.048Z,102496.37
2018-09-25T02:06:23.954Z,102489.80
2018-09-25T02:08:59.916Z,102486.76
2018-09-25T02:11:35.769Z,102493.72
2018-09-25T02:14:11.710Z,102491.11
2018-09-25T02:16:47.501Z,102485.42
2018-09-25T02:19:23.494Z,102493.73
2018-09-25T02:21:59.266Z,102498.95
2018-09-25T02:24:35.039Z,102502.00
2018-09-25T02:27:10.779Z,102507.70
2018-09-25T02:29:46.488Z,102500.72
2018-09-25T02:32:22.280Z,102502.02
2018-09-25T02:34:58.139Z,102511.20
2018-09-25T02:37:34.020Z,102506.81
2018-09-25T02:40:09.853Z,102504.66
2018-09-25T02:42:45.679Z,102505.08
2018-09-25T02:45:21.601Z,102501.17
2018-09-25T02:47:57.404Z,102491.98
2018-09-25T02:50:33.292Z,102494.63
2018-09-25T02:53:09.180Z,102488.95
2018-09-25T02:55:44.988Z,102489.36
2018-09-25T02:58:20.724Z,102491.14
2018-09-25T03:00:56.585Z,102486.31
2018-09-25T03:03:32.364Z,102490.67
2018-09-25T03:06:08.709Z,102493.30
2018-09-25T03:08:44.412Z,102491.11
2018-09-25T03:11:20.308Z,102489.81
2018-09-25T03:13:56.300Z,102491.55
2018-09-25T03:16:32.057Z,102494.16
2018-09-25T03:19:07.907Z,102496.33
2018-09-25T03:21:43.643Z,102498.08
2018-09-25T03:24:19.415Z,102505.92
2018-09-25T03:26:55.098Z,102498.05
2018-09-25T03:29:30.842Z,102503.27
2018-09-25T03:32:06.737Z,102504.98
2018-09-25T03:34:42.633Z,102504.56
2018-09-25T03:37:18.342Z,102507.16
2018-09-25T03:39:54.214Z,102501.47
2018-09-25T03:42:30.044Z,102498.83
2018-09-25T03:45:05.914Z,102497.06
2018-09-25T03:47:41.783Z,102495.73
2018-09-25T03:50:17.782Z,102493.97
2018-09-25T03:52:53.728Z,102489.59
2018-09-25T03:55:29.512Z,102492.17
2018-09-25T03:58:05.258Z,102487.37
2018-09-25T04:00:40.923Z,102495.20
2018-09-25T04:03:16.770Z,102490.81
2018-09-25T04:05:52.628Z,102494.30
2018-09-25T04:08:28.525Z,102489.05
2018-09-25T04:11:04.112Z,102482.05
2018-09-25T04:13:39.984Z,102493.38
2018-09-25T04:16:15.992Z,102491.62
2018-09-25T04:18:51.768Z,102493.35
2018-09-25T04:21:27.567Z,102499.02
2018-09-25T04:24:03.523Z,102491.59
2018-09-25T04:26:39.531Z,102497.71
2018-09-25T04:29:15.341Z,102502.03
2018-09-25T04:31:51.139Z,102505.11
2018-09-25T04:34:26.856Z,102508.58
2018-09-25T04:37:02.609Z,102508.55
2018-09-25T04:39:38.333Z,102508.94
2018-09-25T04:42:14.328Z,102520.23
2018-09-25T04:44:50.075Z,102517.57
2018-09-25T04:47:25.956Z,102519.30
2018-09-25T04:50:01.879Z,102519.27
2018-09-25T04:52:37.683Z,102526.66
2018-09-25T04:55:13.578Z,102533.58
2018-09-25T04:57:49.440Z,102527.88
2018-09-25T05:00:25.264Z,102533.91
2018-09-25T05:03:02.051Z,102533.88
2018-09-25T05:05:37.900Z,102529.48
2018-09-25T05:08:13.684Z,102531.20
2018-09-25T05:10:49.531Z,102538.64
2018-09-25T05:13:25.424Z,102534.30
2018-09-25T05:16:01.232Z,102538.64
2018-09-25T05:18:36.965Z,102537.75
2018-09-25T05:21:12.870Z,102545.17
2018-09-25T05:23:48.771Z,102548.63
2018-09-25T05:26:24.499Z,102550.83
2018-09-25T05:29:00.369Z,102544.72
2018-09-25T05:31:36.226Z,102547.80
2018-09-25T05:34:11.959Z,102556.06
2018-09-25T05:36:47.898Z,102555.65
2018-09-25T05:39:23.670Z,102553.91
2018-09-25T05:41:59.575Z,102548.64
2018-09-25T05:44:35.309Z,102551.72
2018-09-25T05:47:11.407Z,102549.99
2018-09-25T05:49:47.031Z,102554.38
2018-09-25T05:52:22.883Z,102557.52
2018-09-25T05:54:58.636Z,102562.80
2018-09-25T05:57:34.453Z,102558.11
2018-09-25T06:00:10.577Z,102564.70
2018-09-25T06:02:46.305Z,102569.55
2018-09-25T06:05:22.305Z,102564.39
2018-09-25T06:07:58.817Z,102564.47
2018-09-25T06:10:34.591Z,102561.06
2018-09-25T06:13:10.482Z,102563.33
2018-09-25T06:15:46.392Z,102569.09
2018-09-25T06:18:22.683Z,102573.53
2018-09-25T06:20:58.461Z,102570.56
2018-09-25T06:23:34.146Z,102578.07
2018-09-25T06:26:10.091Z,102583.42
2018-09-25T06:28:45.876Z,102576.89
2018-09-25T06:31:21.714Z,102583.94
2018-09-25T06:33:57.454Z,102588.34
2018-09-25T06:36:33.127Z,102595.39
2018-09-25T06:39:09.018Z,102593.67
2018-09-25T06:41:44.884Z,102586.66
2018-09-25T06:44:20.552Z,102590.98
2018-09-25T06:46:56.338Z,102599.64
2018-09-25T06:49:32.135Z,102601.27
2018-09-25T06:52:08.022Z,102598.04
2018-09-25T06:54:44.004Z,102601.79
2018-09-25T06:57:19.859Z,102600.16
2018-09-25T06:59:55.796Z,102605.91
2018-09-25T07:02:31.720Z,102609.02
2018-09-25T07:05:07.495Z,102615.12
2018-09-25T07:07:43.300Z,102619.38
2018-09-25T07:10:19.111Z,102616.13
2018-09-25T07:12:54.955Z,102623.87
2018-09-25T07:15:30.719Z,102622.96
2018-09-25T07:18:06.739Z,102627.70
2018-09-25T07:20:42.493Z,102623.00
2018-09-25T07:23:18.183Z,102624.09
2018-09-25T07:25:54.054Z,102626.47
2018-09-25T07:28:29.751Z,102631.72
2018-09-25T07:31:05.579Z,102634.88
2018-09-25T07:33:41.401Z,102635.36
2018-09-25T07:36:17.115Z,102640.42
2018-09-25T07:38:52.963Z,102645.62
2018-09-25T07:41:28.708Z,102639.20
2018-09-25T07:44:04.475Z,102638.22
2018-09-25T07:46:40.329Z,102638.78
2018-09-25T07:49:16.131Z,102645.75
2018-09-25T07:51:52.044Z,102646.77
2018-09-25T07:54:27.976Z,102650.23
2018-09-25T07:57:03.879Z,102652.17
2018-09-25T07:59:39.910Z,102653.25
2018-09-25T08:02:15.570Z,102658.66
2018-09-25T08:04:51.401Z,102656.05
2018-09-25T08:07:27.243Z,102660.55
2018-09-25T08:10:03.129Z,102668.70
2018-09-25T08:12:39.025Z,102670.10
2018-09-25T08:15:14.912Z,102673.89
2018-09-25T08:17:50.689Z,102681.81
2018-09-25T08:20:26.655Z,102679.66
2018-09-25T08:23:02.520Z,102672.02
2018-09-25T08:25:38.887Z,102672.70
2018-09-25T08:28:14.750Z,102681.47
2018-09-25T08:30:50.452Z,102676.68
2018-09-25T08:33:26.365Z,102685.74
2018-09-25T08:36:02.376Z,102676.68
2018-09-25T08:38:38.060Z,102682.80
2018-09-25T08:41:13.928Z,102677.16
2018-09-25T08:43:49.652Z,102681.65
2018-09-25T08:46:25.412Z,102681.06
2018-09-25T08:49:01.235Z,102682.41
2018-09-25T08:51:37.146Z,102680.73
2018-09-25T08:54:12.942Z,102689.40
2018-09-25T08:56:48.750Z,102685.92
2018-09-25T08:59:24.471Z,102685.50
2018-09-25T09:02:00.370Z,102690.48
2018-09-25T09:04:36.113Z,102692.80
2018-09-25T09:07:11.982Z,102688.02
2018-09-25T09:09:47.927Z,102688.98
2018-09-25T09:12:23.703Z,102685.32
2018-09-25T09:14:59.594Z,102684.92
2018-09-25T09:17:35.403Z,102687.51
2018-09-25T09:20:11.154Z,102685.71
2018-09-25T09:22:47.033Z,102688.02
2018-09-25T09:25:22.835Z,102686.48
2018-09-25T09:27:58.656Z,102688.38
2018-09-25T09:30:34.580Z,102688.65
2018-09-25T09:33:10.520Z,102691.08
2018-09-25T09:35:46.344Z,102688.52
2018-09-25T09:38:22.044Z,102688.23
2018-09-25T09:40:57.826Z,102689.98
2018-09-25T09:43:33.763Z,102691.97
2018-09-25T09:46:09.623Z,102685.97
2018-09-25T09:48:45.396Z,102696.10
2018-09-25T09:51:21.331Z,102697.72
2018-09-25T09:53:57.039Z,102692.53
2018-09-25T09:56:33.066Z,102698.97
2018-09-25T09:59:08.879Z,102698.44
2018-09-25T10:01:44.788Z,102693.23
2018-09-25T10:04:20.659Z,102699.14
2018-09-25T10:06:56.633Z,102698.17
2018-09-25T10:09:32.457Z,102696.17
2018-09-25T10:12:08.183Z,102695.95
2018-09-25T10:14:44.080Z,102704.98
2018-09-25T10:17:20.076Z,102697.89
2018-09-25T10:19:56.078Z,102693.70
2018-09-25T10:22:31.871Z,102694.86
2018-09-25T10:25:07.638Z,102699.30
2018-09-25T10:27:43.570Z,102697.37
2018-09-25T10:30:19.303Z,102697.13
2018-09-25T10:32:55.236Z,102697.06
2018-09-25T10:35:31.036Z,102697.59
2018-09-25T10:38:06.863Z,102692.88
2018-09-25T10:40:42.643Z,102693.16
2018-09-25T10:43:18.565Z,102699.42
2018-09-25T10:45:54.482Z,102706.52
2018-09-25T10:48:30.251Z,102704.23
2018-09-25T10:51:06.033Z,102701.48
2018-09-25T10:53:41.901Z,102700.14
2018-09-25T10:56:17.854Z,102690.18
2018-09-25T10:58:53.530Z,102701.78
2018-09-25T11:01:29.382Z,102703.53
2018-09-25T11:04:05.289Z,102697.61
2018-09-25T11:06:41.215Z,102698.97
2018-09-25T11:09:17.121Z,102697.03
2018-09-25T11:11:52.951Z,102697.26
2018-09-25T11:14:28.824Z,102689.47
2018-09-25T11:17:04.784Z,102688.30
2018-09-25T11:19:40.609Z,102694.09
2018-09-25T11:22:16.248Z,102696.86
2018-09-25T11:24:51.936Z,102691.03
2018-09-25T11:27:27.790Z,102692.91
2018-09-25T11:30:03.561Z,102689.48
2018-09-25T11:32:39.405Z,102691.63
2018-09-25T11:35:15.489Z,102693.76
2018-09-25T11:37:51.301Z,102686.23
2018-09-25T11:40:27.096Z,102684.78
2018-09-25T11:43:02.834Z,102676.55
2018-09-25T11:45:38.719Z,102663.63
2018-09-25T11:48:14.850Z,102658.17
2018-09-25T11:50:50.590Z,102651.88
2018-09-25T11:53:26.533Z,102651.70
2018-09-25T11:56:02.395Z,102662.41
2018-09-25T11:58:38.245Z,102668.89
2018-09-25T12:01:14.118Z,102670.87
2018-09-25T12:03:50.089Z,102684.78
2018-09-25T12:06:25.967Z,102683.98
2018-09-25T12:09:01.645Z,102686.59
2018-09-25T12:11:37.438Z,102673.04
2018-09-25T12:14:13.323Z,102663.13
2018-09-25T12:16:49.037Z,102663.90
2018-09-25T12:19:24.759Z,102655.85
2018-09-25T12:22:00.700Z,102654.49
2018-09-25T12:24:36.367Z,102646.13
2018-09-25T12:27:12.552Z,102644.59
2018-09-25T12:29:48.448Z,102638.31
2018-09-25T12:32:24.343Z,102640.98
2018-09-25T12:34:59.971Z,102638.39
2018-09-25T12:37:35.790Z,102637.27
2018-09-25T12:40:11.518Z,102637.70
2018-09-25T12:42:47.442Z,102634.56
2018-09-25T12:45:23.341Z,102619.23
2018-09-25T12:47:59.208Z,102616.83
2018-09-25T12:50:35.171Z,102613.12
2018-09-25T12:53:10.907Z,102614.75
2018-09-25T12:55:46.688Z,102610.66
2018-09-25T12:58:22.624Z,102612.74
2018-09-25T13:00:58.386Z,102612.83
2018-09-25T13:03:34.164Z,102604.13
2018-09-25T13:06:10.104Z,102603.88
2018-09-25T13:08:46.091Z,102593.44
2018-09-25T13:11:21.928Z,102594.69
2018-09-25T13:13:57.891Z,102595.52
2018-09-25T13:16:33.598Z,102588.62
2018-09-25T13:19:09.383Z,102588.02
2018-09-25T13:21:45.209Z,102594.19
2018-09-25T13:24:21.008Z,102593.47
2018-09-25T13:26:57.058Z,102598.05
2018-09-25T13:29:32.796Z,102591.23
2018-09-25T13:32:08.651Z,102585.63
2018-09-25T13:34:44.451Z,102588.03
2018-09-25T13:37:20.158Z,102587.43
2018-09-25T13:39:56.078Z,102584.73
2018-09-25T13:42:31.955Z,102579.66
2018-09-25T13:45:07.751Z,102576.19
2018-09-25T13:47:43.633Z,102565.77
2018-09-25T13:50:19.374Z,102571.38
2018-09-25T13:52:55.375Z,102569.16
2018-09-25T13:55:31.200Z,102563.13
2018-09-25T13:58:07.145Z,102561.45
2018-09-25T14:00:43.017Z,102550.39
2018-09-25T14:03:18.895Z,102551.84
2018-09-25T14:05:54.675Z,102549.70
2018-09-25T14:08:30.441Z,102555.84
2018-09-25T14:11:06.243Z,102552.03
2018-09-25T14:13:42.081Z,102543.67
2018-09-25T14:16:17.835Z,102543.82
2018-09-25T14:18:53.649Z,102535.63
2018-09-25T14:21:29.472Z,102525.48
2018-09-25T14:24:05.316Z,102533.62
2018-09-25T14:26:41.282Z,102530.27
2018-09-25T14:29:17.123Z,102527.67
2018-09-25T14:31:52.954Z,102522.30
2018-09-25T14:34:28.949Z,102520.71
2018-09-25T14:37:04.864Z,102516.09
2018-09-25T14:39:40.583Z,102514.64
2018-09-25T14:42:16.370Z,102517.28
2018-09-25T14:44:52.266Z,102504.20
2018-09-25T14:47:28.185Z,102502.01
2018-09-25T14:50:04.053Z,102504.09
2018-09-25T14:52:39.895Z,102500.20
2018-09-25T14:55:15.798Z,102499.31
2018-09-25T14:57:51.719Z,102493.66
2018-09-25T15:00:27.683Z,102497.23
2018-09-25T15:03:03.499Z,102493.11
2018-09-25T15:05:39.535Z,102488.99
2018-09-25T15:08:15.467Z,102486.54
2018-09-25T15:10:51.315Z,102488.45
2018-09-25T15:13:27.123Z,102484.45
2018-09-25T15:16:02.951Z,102481.03
2018-09-25T15:18:38.906Z,102485.45
2018-09-25T15:21:15.346Z,102482.95
2018-09-25T15:23:51.284Z,102485.49
2018-09-25T15:26:27.133Z,102485.10
2018-09-25T15:29:03.008Z,102478.17
2018-09-25T15:31:38.919Z,102479.20
2018-09-25T15:34:14.648Z,102471.66
2018-09-25T15:36:50.487Z,102475.17
2018-09-25T15:39:26.323Z,102474.72
2018-09-25T15:42:02.265Z,102470.78
2018-09-25T15:44:38.160Z,102465.28
2018-09-25T15:47:13.997Z,102466.20
2018-09-25T15:49:49.858Z,102462.91
2018-09-25T15:52:25.683Z,102457.23
2018-09-25T15:55:01.376Z,102462.50
2018-09-25T15:57:37.332Z,102453.53
2018-09-25T16:00:13.674Z,102453.58
2018-09-25T16:02:49.401Z,102459.80
2018-09-25T16:05:25.312Z,102460.49
2018-09-25T16:08:01.203Z,102464.65
2018-09-25T16:10:37.055Z,102462.23
2018-09-25T16:13:12.853Z,102462.80
2018-09-25T16:15:48.717Z,102464.95
2018-09-25T16:18:24.579Z,102467.45
2018-09-25T16:21:00.421Z,102474.25
2018-09-25T16:23:36.284Z,102475.34
2018-09-25T16:26:12.419Z,102470.60
2018-09-25T16:28:48.320Z,102473.83
2018-09-25T16:31:24.329Z,102470.36
2018-09-25T16:34:00.215Z,102465.55
2018-09-25T16:36:36.184Z,102469.33
2018-09-25T16:39:15.383Z,102472.43
2018-09-25T16:41:51.242Z,102476.70
2018-09-25T16:44:27.148Z,102472.73
2018-09-25T16:47:03.106Z,102478.58
2018-09-25T16:49:38.830Z,102483.42
2018-09-25T16:52:14.776Z,102488.14
2018-09-25T16:54:50.671Z,102484.77
2018-09-25T16:57:26.562Z,102479.30
2018-09-25T17:00:02.529Z,102482.39
2018-09-25T17:02:38.322Z,102483.28
2018-09-25T17:05:14.347Z,102485.89
2018-09-25T17:07:50.276Z,102496.88
2018-09-25T17:10:26.391Z,102493.38
2018-09-25T17:13:02.248Z,102485.81
2018-09-25T17:15:38.295Z,102493.67
2018-09-25T17:18:14.230Z,102491.03
2018-09-25T17:20:50.335Z,102495.87
2018-09-25T17:23:26.234Z,102487.89
2018-09-25T17:26:02.169Z,102492.78
2018-09-25T17:28:38.019Z,102491.34
2018-09-25T17:31:13.919Z,102485.94
2018-09-25T17:33:49.949Z,102491.52
2018-09-25T17:36:25.786Z,102490.95
2018-09-25T17:39:01.538Z,102489.06
2018-09-25T17:41:37.645Z,102492.56
2018-09-25T17:44:13.607Z,102488.45
2018-09-25T17:46:49.414Z,102492.23
2018-09-25T17:49:25.498Z,102490.56
2018-09-25T17:52:01.293Z,102492.22
2018-09-25T17:54:37.160Z,102496.38
2018-09-25T17:57:13.080Z,102492.20
2018-09-25T17:59:48.885Z,102487.16
2018-09-25T18:02:25.054Z,102484.25
2018-09-25T18:05:01.000Z,102490.55
2018-09-25T18:07:36.923Z,102487.67
2018-09-25T18:10:12.824Z,102500.17
2018-09-25T18:12:48.976Z,102504.70
2018-09-25T18:15:25.056Z,102500.41
2018-09-25T18:18:00.880Z,102502.69
2018-09-25T18:20:36.834Z,102501.08
2018-09-25T18:23:12.897Z,102496.81
2018-09-25T18:25:48.792Z,102494.80
2018-09-25T18:28:24.616Z,102498.42
2018-09-25T18:31:00.651Z,102502.48
2018-09-25T18:33:36.696Z,102505.67
2018-09-25T18:36:12.987Z,102505.73
2018-09-25T18:38:55.725Z,102509.33
2018-09-25T18:41:31.429Z,102507.59
2018-09-25T18:44:07.241Z,102503.79
2018-09-25T18:46:43.075Z,102505.62
2018-09-25T18:49:18.727Z,102506.55
2018-09-25T18:51:54.637Z,102506.64
2018-09-25T18:54:30.626Z,102511.48
2018-09-25T18:57:06.536Z,102508.93
2018-09-25T18:59:42.437Z,102512.02
2018-09-25T19:02:18.241Z,102519.05
2018-09-25T19:04:54.149Z,102517.32
2018-09-25T19:07:29.891Z,102525.70
2018-09-25T19:10:05.823Z,102513.94
2018-09-25T19:12:41.793Z,102518.83
2018-09-25T19:15:17.710Z,102519.27
2018-09-25T19:17:53.859Z,102514.87
2018-09-25T19:20:29.695Z,102510.97
2018-09-25T19:23:05.574Z,102509.76
2018-09-25T19:25:41.300Z,102514.16
2018-09-25T19:28:17.309Z,102511.44
2018-09-25T19:30:53.321Z,102515.42
2018-09-25T19:33:29.307Z,102508.41
2018-09-25T19:36:05.097Z,102512.39
2018-09-25T19:38:41.055Z,102516.35
2018-09-25T19:41:16.912Z,102515.58
2018-09-25T19:43:52.711Z,102511.17
2018-09-25T19:46:28.463Z,102505.51
2018-09-25T19:49:04.406Z,102503.41
2018-09-25T19:51:40.237Z,102504.32
2018-09-25T19:54:16.260Z,102502.84
2018-09-25T19:56:52.314Z,102493.52
2018-09-25T19:59:28.043Z,102478.52
2018-09-25T20:02:04.071Z,102472.44
2018-09-25T20:04:39.939Z,102473.89
2018-09-25T20:07:15.705Z,102470.89
2018-09-25T20:09:51.677Z,102463.36
2018-09-25T20:12:27.509Z,102462.22
2018-09-25T20:15:03.379Z,102464.49
2018-09-25T20:17:39.113Z,102473.32
2018-09-25T20:20:15.044Z,102489.21
2018-09-25T20:22:51.000Z,102490.57
2018-09-25T20:25:26.929Z,102485.33
2018-09-25T20:28:02.849Z,102479.63
2018-09-25T20:30:38.732Z,102462.59
2018-09-25T20:33:14.670Z,102463.51
2018-09-25T20:35:50.432Z,102465.77
2018-09-25T20:38:26.131Z,102462.29
2018-09-25T20:41:02.021Z,102466.73
2018-09-25T20:43:37.929Z,102464.58
2018-09-25T20:46:13.695Z,102461.09
2018-09-25T20:48:49.683Z,102460.19
2018-09-25T20:51:25.548Z,102468.52
2018-09-25T20:54:01.355Z,102469.88
2018-09-25T20:56:37.241Z,102468.06
2018-09-25T20:59:13.020Z,102452.38
2018-09-25T21:01:48.855Z,102444.95
2018-09-25T21:04:24.929Z,102442.29
2018-09-25T21:07:00.767Z,102438.80
2018-09-25T21:09:36.547Z,102441.02
2018-09-25T21:12:12.437Z,102451.07
2018-09-25T21:14:48.330Z,102451.98
2018-09-25T21:17:24.287Z,102458.53
2018-09-25T21:20:00.229Z,102466.45
2018-09-25T21:22:35.974Z,102469.09
2018-09-25T21:25:11.922Z,102471.29
2018-09-25T21:27:47.840Z,102470.47
2018-09-25T21:30:23.805Z,102458.64
2018-09-25T21:32:59.609Z,102453.41
2018-09-25T21:35:35.587Z,102449.56
2018-09-25T21:38:11.300Z,102442.98
2018-09-25T21:40:47.368Z,102435.98
2018-09-25T21:43:23.365Z,102417.98
2018-09-25T21:45:59.332Z,102404.05
2018-09-25T21:48:35.178Z,102407.13
2018-09-25T21:51:11.100Z,102397.09
2018-09-25T21:53:46.903Z,102386.55
2018-09-25T21:56:22.662Z,102366.81
2018-09-25T21:58:58.357Z,102372.96
2018-09-25T22:01:34.245Z,102388.30
2018-09-25T22:04:10.181Z,102376.46
2018-09-25T22:06:45.937Z,102369.95
2018-09-25T22:09:21.924Z,102376.56
2018-09-25T22:11:57.676Z,102377.45
2018-09-25T22:14:33.504Z,102384.03
2018-09-25T22:17:09.326Z,102384.50
2018-09-25T22:19:45.115Z,102385.82
2018-09-25T22:22:20.752Z,102373.13
2018-09-25T22:24:56.778Z,102373.58
2018-09-25T22:27:32.634Z,102372.23
2018-09-25T22:30:08.399Z,102375.78
2018-09-25T22:32:44.317Z,102371.33
2018-09-25T22:35:20.304Z,102373.98
2018-09-25T22:37:56.011Z,102369.60
2018-09-25T22:40:32.022Z,102362.11
2018-09-25T22:43:07.721Z,102366.53
2018-09-25T22:45:43.871Z,102364.36
2018-09-25T22:48:19.634Z,102363.94
2018-09-25T22:50:55.258Z,102358.22
2018-09-25T22:53:31.238Z,102358.59
2018-09-25T22:56:06.965Z,102354.69
2018-09-25T22:58:42.789Z,102347.28
2018-09-25T23:01:18.667Z,102334.23
2018-09-25T23:03:54.624Z,102340.78
2018-09-25T23:06:30.402Z,102338.17
2018-09-25T23:09:06.181Z,102336.44
2018-09-25T23:11:42.140Z,102333.83
2018-09-25T23:14:18.026Z,102338.22
2018-09-25T23:16:53.990Z,102340.85
2018-09-25T23:19:29.792Z,102345.25
2018-09-25T23:22:05.693Z,102345.68
2018-09-25T23:24:41.386Z,102352.69
2018-09-25T23:27:17.200Z,102350.46
2018-09-25T23:29:53.025Z,102349.64
2018-09-25T23:32:28.771Z,102350.48
2018-09-25T23:35:04.587Z,102356.20
2018-09-25T23:37:40.399Z,102363.67
2018-09-25T23:40:17.323Z,102364.98
2018-09-25T23:42:51.972Z,102365.84
2018-09-25T23:45:29.739Z,102372.45
2018-09-25T23:48:05.564Z,102371.59
2018-09-25T23:52:49.235Z,102372.47
2018-09-25T23:55:26.590Z,102368.96
2018-09-25T23:58:05.402Z,102368.49
